METAR Reports

 

EHEH - Eindhoven Airport, Eindhoven, NL
Distance from station: W 30km
Updated: 18/12/2017 20:55
Mist, Zwaar bewolkt
Mist, Zwaar bewolkt
 Wind van NO
Wind: NO 9 km/h
Temperatuur: 5°C
Wind Chill: 3°C
Dauwpunt: 4°C
Vochtigheid: 93%
Barometer: 1029 hPa
Overzicht: Mist
Clouds: Zwaar bewolkt
Visibility: 7 km
Cloud details: Zwaar bewolkt 305 m
2017/12/18 19:55 EHEH 181955Z AUTO 04005KT 010V070 7000 BR OVC010 05/04 Q1029 GRN 33005KT 9999 FEW008 SCT010 BKN020 TEMPO 04005KT 4000 BR SCT003 BKN005 BKN010
EHVK - Volkel Airoprt, Volkel, NL
Distance from station: NO 30km
Updated: 18/12/2017 20:55
Mist, Meestal bewolkt
Mist, Meestal bewolkt
 Wind van NNO
Wind: NNO 6 km/h
Temperatuur: 4°C
Dauwpunt: 3°C
Vochtigheid: 93%
Barometer: 1029 hPa
Overzicht: Mist
Clouds: Meestal bewolkt
Visibility: 6 km
Cloud details: Few Clouds 335 m
Gedeeltelijk bewolkt 427 m
Meestal bewolkt 488 m
2017/12/18 19:55 EHVK 181955Z AUTO 02003KT 6000 BR FEW011 SCT014 BKN016 04/03 Q1029 GRN
 
EHGR - Gilze-Rijen Airport, Gilze-Rijen, NL
Distance from station: W 43km
Updated: 18/12/2017 20:55
Zwaar bewolkt
Zwaar bewolkt
 Wind van N
Wind: N 6 km/h
Temperatuur: 6°C
Dauwpunt: 5°C
Vochtigheid: 93%
Barometer: 1029 hPa
Clouds: Zwaar bewolkt
Visibility: 10 km
Cloud details: Meestal bewolkt 488 m
Zwaar bewolkt 1097 m
2017/12/18 19:55 EHGR 181955Z AUTO 36003KT 310V050 9999 BKN016 OVC036 06/05 Q1029 WHT
EHBK - Maastricht-Aken Airport, Beek, NL
Distance from station: ZZO 70km
Updated: 18/12/2017 20:55
Zwaar bewolkt
Zwaar bewolkt
 Wind van N
Wind: N 19 km/h
Temperatuur: 5°C
Wind Chill: 1°C
Dauwpunt: 4°C
Vochtigheid: 93%
Barometer: 1028 hPa
Clouds: Zwaar bewolkt
Visibility: 9 km
Cloud details: Few Clouds 213 m
Gedeeltelijk bewolkt 274 m
Zwaar bewolkt 305 m
2017/12/18 19:55 EHBK 181955Z AUTO 35010KT 310V030 9000 FEW007 SCT009 OVC010 05/04 Q1028 TEMPO 6000
 
EHAM - Schiphol, Amsterdam, NL
Distance from station: NNW 115km
Updated: 18/12/2017 20:55
Helder
Helder
 Wind van NNW
Wind: NNW 4 km/h
Temperatuur: 2°C
Dauwpunt: 2°C
Vochtigheid: 100%
Barometer: 1029 hPa
Overzicht: Helder
Visibility: greater than 10 km
2017/12/18 19:55 EHAM 181955Z 34002KT CAVOK 02/02 Q1029 NOSIG